sensor_id;sensor_type;location;lat;lon;timestamp;P1;durP1;ratioP1;P2;durP2;ratioP2
71696;SDS011;68167;59.120;37.898;2024-02-26T00:01:02;15.50;;;8.90;;
71696;SDS011;68167;59.120;37.898;2024-02-26T00:03:28;12.13;;;8.03;;
71696;SDS011;68167;59.120;37.898;2024-02-26T00:05:54;14.10;;;8.90;;
71696;SDS011;68167;59.120;37.898;2024-02-26T00:08:21;20.03;;;8.77;;
71696;SDS011;68167;59.120;37.898;2024-02-26T00:10:48;14.20;;;7.97;;
71696;SDS011;68167;59.120;37.898;2024-02-26T00:13:15;19.67;;;9.30;;
71696;SDS011;68167;59.120;37.898;2024-02-26T00:15:41;19.60;;;8.57;;
71696;SDS011;68167;59.120;37.898;2024-02-26T00:18:07;18.07;;;9.33;;
71696;SDS011;68167;59.120;37.898;2024-02-26T00:20:33;19.90;;;8.83;;
71696;SDS011;68167;59.120;37.898;2024-02-26T00:22:59;20.77;;;9.63;;
71696;SDS011;68167;59.120;37.898;2024-02-26T00:25:26;18.03;;;9.20;;
71696;SDS011;68167;59.120;37.898;2024-02-26T00:27:52;17.07;;;9.10;;
71696;SDS011;68167;59.120;37.898;2024-02-26T00:30:18;20.40;;;9.03;;
71696;SDS011;68167;59.120;37.898;2024-02-26T00:32:44;20.10;;;9.10;;
71696;SDS011;68167;59.120;37.898;2024-02-26T00:35:11;21.07;;;8.87;;
71696;SDS011;68167;59.120;37.898;2024-02-26T00:37:37;16.47;;;8.37;;
71696;SDS011;68167;59.120;37.898;2024-02-26T00:40:03;21.40;;;10.43;;
71696;SDS011;68167;59.120;37.898;2024-02-26T00:42:30;16.37;;;8.50;;
71696;SDS011;68167;59.120;37.898;2024-02-26T00:44:56;22.20;;;9.77;;
71696;SDS011;68167;59.120;37.898;2024-02-26T00:47:22;15.00;;;8.53;;
71696;SDS011;68167;59.120;37.898;2024-02-26T00:49:48;22.47;;;9.77;;
71696;SDS011;68167;59.120;37.898;2024-02-26T00:52:15;23.23;;;10.83;;
71696;SDS011;68167;59.120;37.898;2024-02-26T00:54:41;16.07;;;8.20;;
71696;SDS011;68167;59.120;37.898;2024-02-26T00:57:07;16.17;;;8.53;;
71696;SDS011;68167;59.120;37.898;2024-02-26T00:59:33;17.67;;;8.40;;
71696;SDS011;68167;59.120;37.898;2024-02-26T01:02:00;15.20;;;9.00;;
71696;SDS011;68167;59.120;37.898;2024-02-26T01:04:28;16.37;;;8.70;;
71696;SDS011;68167;59.120;37.898;2024-02-26T01:06:54;19.97;;;9.10;;
71696;SDS011;68167;59.120;37.898;2024-02-26T01:09:20;17.33;;;8.77;;
71696;SDS011;68167;59.120;37.898;2024-02-26T01:11:46;16.23;;;7.90;;
71696;SDS011;68167;59.120;37.898;2024-02-26T01:14:13;21.73;;;9.50;;
71696;SDS011;68167;59.120;37.898;2024-02-26T01:16:39;18.80;;;8.30;;
71696;SDS011;68167;59.120;37.898;2024-02-26T01:19:06;16.37;;;8.70;;
71696;SDS011;68167;59.120;37.898;2024-02-26T01:21:32;16.97;;;8.97;;
71696;SDS011;68167;59.120;37.898;2024-02-26T01:23:59;17.03;;;8.57;;
71696;SDS011;68167;59.120;37.898;2024-02-26T01:26:25;21.23;;;9.30;;
71696;SDS011;68167;59.120;37.898;2024-02-26T01:28:51;16.73;;;8.27;;
71696;SDS011;68167;59.120;37.898;2024-02-26T01:31:17;17.93;;;8.73;;
71696;SDS011;68167;59.120;37.898;2024-02-26T01:33:43;16.97;;;8.93;;
71696;SDS011;68167;59.120;37.898;2024-02-26T01:36:10;16.50;;;8.97;;
71696;SDS011;68167;59.120;37.898;2024-02-26T01:38:36;17.87;;;8.37;;
71696;SDS011;68167;59.120;37.898;2024-02-26T01:41:02;17.13;;;7.87;;
71696;SDS011;68167;59.120;37.898;2024-02-26T01:43:29;15.67;;;8.93;;
71696;SDS011;68167;59.120;37.898;2024-02-26T01:45:55;14.37;;;7.17;;
71696;SDS011;68167;59.120;37.898;2024-02-26T01:48:21;15.13;;;7.37;;
71696;SDS011;68167;59.120;37.898;2024-02-26T01:50:48;13.97;;;7.73;;
71696;SDS011;68167;59.120;37.898;2024-02-26T01:53:15;13.90;;;7.17;;
71696;SDS011;68167;59.120;37.898;2024-02-26T01:55:42;15.17;;;7.60;;
71696;SDS011;68167;59.120;37.898;2024-02-26T01:58:08;17.97;;;7.27;;
71696;SDS011;68167;59.120;37.898;2024-02-26T02:00:35;13.33;;;6.63;;
71696;SDS011;68167;59.120;37.898;2024-02-26T02:03:02;13.17;;;7.50;;
71696;SDS011;68167;59.120;37.898;2024-02-26T02:05:30;11.03;;;6.37;;
71696;SDS011;68167;59.120;37.898;2024-02-26T02:07:57;12.93;;;6.93;;
71696;SDS011;68167;59.120;37.898;2024-02-26T02:10:24;13.43;;;6.60;;
71696;SDS011;68167;59.120;37.898;2024-02-26T02:12:52;12.13;;;6.90;;
71696;SDS011;68167;59.120;37.898;2024-02-26T02:15:19;16.10;;;7.50;;
71696;SDS011;68167;59.120;37.898;2024-02-26T02:17:46;12.70;;;7.17;;
71696;SDS011;68167;59.120;37.898;2024-02-26T02:20:15;14.43;;;6.83;;
71696;SDS011;68167;59.120;37.898;2024-02-26T02:22:46;17.10;;;7.63;;
71696;SDS011;68167;59.120;37.898;2024-02-26T02:25:13;10.83;;;6.33;;
71696;SDS011;68167;59.120;37.898;2024-02-26T02:27:40;19.63;;;7.73;;
71696;SDS011;68167;59.120;37.898;2024-02-26T02:30:08;14.70;;;7.37;;
71696;SDS011;68167;59.120;37.898;2024-02-26T02:32:39;15.10;;;8.07;;
71696;SDS011;68167;59.120;37.898;2024-02-26T02:35:07;13.10;;;7.73;;
71696;SDS011;68167;59.120;37.898;2024-02-26T02:37:33;13.67;;;7.10;;
71696;SDS011;68167;59.120;37.898;2024-02-26T02:40:00;9.87;;;6.53;;
71696;SDS011;68167;59.120;37.898;2024-02-26T02:42:26;16.40;;;7.53;;
71696;SDS011;68167;59.120;37.898;2024-02-26T02:44:52;10.77;;;7.03;;
71696;SDS011;68167;59.120;37.898;2024-02-26T02:47:19;16.07;;;7.67;;
71696;SDS011;68167;59.120;37.898;2024-02-26T02:49:45;14.90;;;7.97;;
71696;SDS011;68167;59.120;37.898;2024-02-26T02:52:11;17.10;;;7.53;;
71696;SDS011;68167;59.120;37.898;2024-02-26T02:54:38;16.40;;;7.73;;
71696;SDS011;68167;59.120;37.898;2024-02-26T02:57:06;14.27;;;7.60;;
71696;SDS011;68167;59.120;37.898;2024-02-26T02:59:32;13.47;;;6.97;;
71696;SDS011;68167;59.120;37.898;2024-02-26T03:01:58;13.43;;;6.20;;
71696;SDS011;68167;59.120;37.898;2024-02-26T03:04:25;12.63;;;7.87;;
71696;SDS011;68167;59.120;37.898;2024-02-26T03:06:51;16.70;;;7.87;;
71696;SDS011;68167;59.120;37.898;2024-02-26T03:09:17;12.40;;;7.40;;
71696;SDS011;68167;59.120;37.898;2024-02-26T03:11:43;12.57;;;7.60;;
71696;SDS011;68167;59.120;37.898;2024-02-26T03:14:10;15.43;;;7.83;;
71696;SDS011;68167;59.120;37.898;2024-02-26T03:16:36;14.73;;;6.80;;
71696;SDS011;68167;59.120;37.898;2024-02-26T03:19:02;12.93;;;6.93;;
71696;SDS011;68167;59.120;37.898;2024-02-26T03:21:29;16.50;;;7.33;;
71696;SDS011;68167;59.120;37.898;2024-02-26T03:23:55;14.83;;;7.33;;
71696;SDS011;68167;59.120;37.898;2024-02-26T03:26:23;16.97;;;7.80;;
71696;SDS011;68167;59.120;37.898;2024-02-26T03:28:49;14.43;;;7.40;;
71696;SDS011;68167;59.120;37.898;2024-02-26T03:31:15;15.03;;;8.67;;
71696;SDS011;68167;59.120;37.898;2024-02-26T03:33:41;11.90;;;6.97;;
71696;SDS011;68167;59.120;37.898;2024-02-26T03:36:08;16.43;;;7.50;;
71696;SDS011;68167;59.120;37.898;2024-02-26T03:38:34;16.27;;;8.63;;
71696;SDS011;68167;59.120;37.898;2024-02-26T03:41:00;13.23;;;7.20;;
71696;SDS011;68167;59.120;37.898;2024-02-26T03:43:26;13.90;;;7.20;;
71696;SDS011;68167;59.120;37.898;2024-02-26T03:45:53;16.20;;;7.70;;
71696;SDS011;68167;59.120;37.898;2024-02-26T03:48:19;12.70;;;7.20;;
71696;SDS011;68167;59.120;37.898;2024-02-26T03:50:45;15.43;;;7.60;;
71696;SDS011;68167;59.120;37.898;2024-02-26T03:53:12;11.77;;;6.83;;
71696;SDS011;68167;59.120;37.898;2024-02-26T03:55:38;13.33;;;7.27;;
71696;SDS011;68167;59.120;37.898;2024-02-26T03:58:04;13.70;;;7.80;;
71696;SDS011;68167;59.120;37.898;2024-02-26T04:00:31;15.33;;;8.13;;
71696;SDS011;68167;59.120;37.898;2024-02-26T04:02:57;17.83;;;10.73;;
71696;SDS011;68167;59.120;37.898;2024-02-26T04:05:23;15.30;;;7.17;;
71696;SDS011;68167;59.120;37.898;2024-02-26T04:07:49;16.13;;;7.60;;
71696;SDS011;68167;59.120;37.898;2024-02-26T04:10:16;17.00;;;7.20;;
71696;SDS011;68167;59.120;37.898;2024-02-26T04:12:44;16.93;;;8.00;;
71696;SDS011;68167;59.120;37.898;2024-02-26T04:15:11;11.90;;;6.60;;
71696;SDS011;68167;59.120;37.898;2024-02-26T04:17:38;10.97;;;6.60;;
71696;SDS011;68167;59.120;37.898;2024-02-26T04:20:04;12.53;;;7.70;;
71696;SDS011;68167;59.120;37.898;2024-02-26T04:22:32;11.80;;;7.07;;
71696;SDS011;68167;59.120;37.898;2024-02-26T04:24:59;10.53;;;6.27;;
71696;SDS011;68167;59.120;37.898;2024-02-26T04:27:25;11.87;;;7.07;;
71696;SDS011;68167;59.120;37.898;2024-02-26T04:29:51;13.33;;;6.63;;
71696;SDS011;68167;59.120;37.898;2024-02-26T04:32:18;9.97;;;6.13;;
71696;SDS011;68167;59.120;37.898;2024-02-26T04:34:44;11.13;;;6.10;;
71696;SDS011;68167;59.120;37.898;2024-02-26T04:37:10;9.63;;;5.97;;
71696;SDS011;68167;59.120;37.898;2024-02-26T04:39:37;10.00;;;5.87;;
71696;SDS011;68167;59.120;37.898;2024-02-26T04:42:03;8.03;;;5.60;;
71696;SDS011;68167;59.120;37.898;2024-02-26T04:44:29;8.80;;;5.67;;
71696;SDS011;68167;59.120;37.898;2024-02-26T04:46:56;8.87;;;5.47;;
71696;SDS011;68167;59.120;37.898;2024-02-26T04:49:22;9.13;;;5.50;;
71696;SDS011;68167;59.120;37.898;2024-02-26T04:51:48;7.80;;;5.67;;
71696;SDS011;68167;59.120;37.898;2024-02-26T04:54:15;10.90;;;5.70;;
71696;SDS011;68167;59.120;37.898;2024-02-26T04:56:41;8.77;;;5.63;;
71696;SDS011;68167;59.120;37.898;2024-02-26T04:59:08;11.47;;;5.93;;
71696;SDS011;68167;59.120;37.898;2024-02-26T05:01:34;10.33;;;6.07;;
71696;SDS011;68167;59.120;37.898;2024-02-26T05:04:02;7.77;;;5.43;;
71696;SDS011;68167;59.120;37.898;2024-02-26T05:06:36;8.23;;;5.00;;
71696;SDS011;68167;59.120;37.898;2024-02-26T05:09:03;9.10;;;5.80;;
71696;SDS011;68167;59.120;37.898;2024-02-26T05:11:29;9.07;;;5.37;;
71696;SDS011;68167;59.120;37.898;2024-02-26T05:13:55;8.57;;;5.13;;
71696;SDS011;68167;59.120;37.898;2024-02-26T05:16:22;8.60;;;5.20;;
71696;SDS011;68167;59.120;37.898;2024-02-26T05:18:50;8.93;;;5.97;;
71696;SDS011;68167;59.120;37.898;2024-02-26T05:21:16;7.87;;;5.17;;
71696;SDS011;68167;59.120;37.898;2024-02-26T05:23:42;11.10;;;5.93;;
71696;SDS011;68167;59.120;37.898;2024-02-26T05:26:09;8.93;;;4.63;;
71696;SDS011;68167;59.120;37.898;2024-02-26T05:28:35;10.33;;;5.50;;
71696;SDS011;68167;59.120;37.898;2024-02-26T05:31:05;11.37;;;6.03;;
71696;SDS011;68167;59.120;37.898;2024-02-26T05:33:31;10.07;;;5.93;;
71696;SDS011;68167;59.120;37.898;2024-02-26T05:35:58;9.60;;;5.10;;
71696;SDS011;68167;59.120;37.898;2024-02-26T05:38:29;9.57;;;6.00;;
71696;SDS011;68167;59.120;37.898;2024-02-26T05:40:57;7.70;;;5.37;;
71696;SDS011;68167;59.120;37.898;2024-02-26T05:43:25;10.00;;;6.53;;
71696;SDS011;68167;59.120;37.898;2024-02-26T05:45:52;9.13;;;5.50;;
71696;SDS011;68167;59.120;37.898;2024-02-26T05:48:18;9.10;;;5.17;;
71696;SDS011;68167;59.120;37.898;2024-02-26T05:50:45;9.47;;;6.00;;
71696;SDS011;68167;59.120;37.898;2024-02-26T05:53:12;15.47;;;7.17;;
71696;SDS011;68167;59.120;37.898;2024-02-26T05:55:39;10.40;;;6.80;;
71696;SDS011;68167;59.120;37.898;2024-02-26T05:58:05;9.90;;;6.27;;
71696;SDS011;68167;59.120;37.898;2024-02-26T06:00:31;10.90;;;6.13;;
71696;SDS011;68167;59.120;37.898;2024-02-26T06:02:57;10.90;;;6.03;;
71696;SDS011;68167;59.120;37.898;2024-02-26T06:05:24;10.70;;;7.17;;
71696;SDS011;68167;59.120;37.898;2024-02-26T06:07:50;14.20;;;7.37;;
71696;SDS011;68167;59.120;37.898;2024-02-26T06:10:16;13.30;;;7.57;;
71696;SDS011;68167;59.120;37.898;2024-02-26T06:12:44;18.57;;;7.83;;
71696;SDS011;68167;59.120;37.898;2024-02-26T06:15:10;13.90;;;7.87;;
71696;SDS011;68167;59.120;37.898;2024-02-26T06:17:36;14.47;;;7.20;;
71696;SDS011;68167;59.120;37.898;2024-02-26T06:20:04;14.67;;;7.30;;
71696;SDS011;68167;59.120;37.898;2024-02-26T06:22:32;12.97;;;6.80;;
71696;SDS011;68167;59.120;37.898;2024-02-26T06:24:58;12.90;;;7.30;;
71696;SDS011;68167;59.120;37.898;2024-02-26T06:27:25;13.03;;;7.33;;
71696;SDS011;68167;59.120;37.898;2024-02-26T06:29:51;14.43;;;7.40;;
71696;SDS011;68167;59.120;37.898;2024-02-26T06:32:17;12.33;;;7.07;;
71696;SDS011;68167;59.120;37.898;2024-02-26T06:34:43;14.37;;;7.73;;
71696;SDS011;68167;59.120;37.898;2024-02-26T06:37:09;14.53;;;7.47;;
71696;SDS011;68167;59.120;37.898;2024-02-26T06:39:36;13.87;;;7.40;;
71696;SDS011;68167;59.120;37.898;2024-02-26T06:42:02;12.67;;;6.87;;
71696;SDS011;68167;59.120;37.898;2024-02-26T06:44:28;14.50;;;7.87;;
71696;SDS011;68167;59.120;37.898;2024-02-26T06:46:58;12.50;;;7.87;;
71696;SDS011;68167;59.120;37.898;2024-02-26T06:49:25;14.80;;;7.73;;
71696;SDS011;68167;59.120;37.898;2024-02-26T06:51:52;15.37;;;7.57;;
71696;SDS011;68167;59.120;37.898;2024-02-26T06:54:19;12.40;;;7.10;;
71696;SDS011;68167;59.120;37.898;2024-02-26T06:56:46;11.93;;;6.93;;
71696;SDS011;68167;59.120;37.898;2024-02-26T06:59:12;14.80;;;7.27;;
71696;SDS011;68167;59.120;37.898;2024-02-26T07:01:42;11.17;;;7.53;;
71696;SDS011;68167;59.120;37.898;2024-02-26T07:04:09;12.17;;;7.23;;
71696;SDS011;68167;59.120;37.898;2024-02-26T07:06:36;14.20;;;8.03;;
71696;SDS011;68167;59.120;37.898;2024-02-26T07:09:03;12.47;;;7.47;;
71696;SDS011;68167;59.120;37.898;2024-02-26T07:11:29;13.07;;;7.70;;
71696;SDS011;68167;59.120;37.898;2024-02-26T07:13:55;15.70;;;8.50;;
71696;SDS011;68167;59.120;37.898;2024-02-26T07:16:22;12.20;;;7.50;;
71696;SDS011;68167;59.120;37.898;2024-02-26T07:18:48;14.43;;;7.33;;
71696;SDS011;68167;59.120;37.898;2024-02-26T07:21:14;13.00;;;7.70;;
71696;SDS011;68167;59.120;37.898;2024-02-26T07:23:40;12.17;;;6.83;;
71696;SDS011;68167;59.120;37.898;2024-02-26T07:26:07;13.17;;;7.37;;
71696;SDS011;68167;59.120;37.898;2024-02-26T07:28:34;16.47;;;8.07;;
71696;SDS011;68167;59.120;37.898;2024-02-26T07:31:00;15.30;;;8.30;;
71696;SDS011;68167;59.120;37.898;2024-02-26T07:33:26;16.00;;;7.53;;
71696;SDS011;68167;59.120;37.898;2024-02-26T07:35:53;15.57;;;7.67;;
71696;SDS011;68167;59.120;37.898;2024-02-26T07:38:19;13.43;;;6.87;;
71696;SDS011;68167;59.120;37.898;2024-02-26T07:40:45;14.10;;;8.00;;
71696;SDS011;68167;59.120;37.898;2024-02-26T07:43:12;13.57;;;7.97;;
71696;SDS011;68167;59.120;37.898;2024-02-26T07:45:38;15.10;;;8.17;;
71696;SDS011;68167;59.120;37.898;2024-02-26T07:48:05;15.80;;;7.33;;
71696;SDS011;68167;59.120;37.898;2024-02-26T07:50:31;15.90;;;8.20;;
71696;SDS011;68167;59.120;37.898;2024-02-26T07:52:58;15.97;;;7.60;;
71696;SDS011;68167;59.120;37.898;2024-02-26T07:55:24;14.23;;;7.37;;
71696;SDS011;68167;59.120;37.898;2024-02-26T07:57:50;18.00;;;8.43;;
71696;SDS011;68167;59.120;37.898;2024-02-26T08:00:17;13.63;;;7.30;;
71696;SDS011;68167;59.120;37.898;2024-02-26T08:02:43;17.10;;;8.97;;
71696;SDS011;68167;59.120;37.898;2024-02-26T08:05:10;16.87;;;7.87;;
71696;SDS011;68167;59.120;37.898;2024-02-26T08:07:36;15.53;;;7.47;;
71696;SDS011;68167;59.120;37.898;2024-02-26T08:10:02;14.87;;;7.43;;
71696;SDS011;68167;59.120;37.898;2024-02-26T08:12:30;14.87;;;7.87;;
71696;SDS011;68167;59.120;37.898;2024-02-26T08:14:56;14.07;;;7.43;;
71696;SDS011;68167;59.120;37.898;2024-02-26T08:17:24;13.10;;;7.97;;
71696;SDS011;68167;59.120;37.898;2024-02-26T08:19:50;16.23;;;8.33;;
71696;SDS011;68167;59.120;37.898;2024-02-26T08:22:16;13.50;;;7.70;;
71696;SDS011;68167;59.120;37.898;2024-02-26T08:24:43;17.07;;;8.03;;
71696;SDS011;68167;59.120;37.898;2024-02-26T08:27:10;14.67;;;8.13;;
71696;SDS011;68167;59.120;37.898;2024-02-26T08:29:36;18.53;;;9.13;;
71696;SDS011;68167;59.120;37.898;2024-02-26T08:32:03;13.80;;;7.90;;
71696;SDS011;68167;59.120;37.898;2024-02-26T08:34:29;11.87;;;7.73;;
71696;SDS011;68167;59.120;37.898;2024-02-26T08:36:56;16.47;;;8.10;;
71696;SDS011;68167;59.120;37.898;2024-02-26T08:39:22;14.70;;;8.03;;
71696;SDS011;68167;59.120;37.898;2024-02-26T08:41:48;14.87;;;7.30;;
71696;SDS011;68167;59.120;37.898;2024-02-26T08:44:15;17.20;;;8.20;;
71696;SDS011;68167;59.120;37.898;2024-02-26T08:46:42;12.50;;;7.10;;
71696;SDS011;68167;59.120;37.898;2024-02-26T08:49:08;14.40;;;7.67;;
71696;SDS011;68167;59.120;37.898;2024-02-26T08:51:34;16.00;;;6.93;;
71696;SDS011;68167;59.120;37.898;2024-02-26T08:54:00;14.37;;;7.90;;
71696;SDS011;68167;59.120;37.898;2024-02-26T08:56:27;14.23;;;7.83;;
71696;SDS011;68167;59.120;37.898;2024-02-26T08:58:53;19.60;;;9.10;;
71696;SDS011;68167;59.120;37.898;2024-02-26T09:01:22;19.63;;;8.10;;
71696;SDS011;68167;59.120;37.898;2024-02-26T09:03:49;17.27;;;8.17;;
71696;SDS011;68167;59.120;37.898;2024-02-26T09:06:15;14.27;;;7.60;;
71696;SDS011;68167;59.120;37.898;2024-02-26T09:08:42;17.20;;;8.43;;
71696;SDS011;68167;59.120;37.898;2024-02-26T09:11:08;12.23;;;7.50;;
71696;SDS011;68167;59.120;37.898;2024-02-26T09:13:36;14.80;;;8.03;;
71696;SDS011;68167;59.120;37.898;2024-02-26T09:16:02;17.33;;;8.53;;
71696;SDS011;68167;59.120;37.898;2024-02-26T09:18:28;12.50;;;7.30;;
71696;SDS011;68167;59.120;37.898;2024-02-26T09:20:55;14.10;;;8.37;;
71696;SDS011;68167;59.120;37.898;2024-02-26T09:23:21;14.30;;;7.57;;
71696;SDS011;68167;59.120;37.898;2024-02-26T09:25:47;16.90;;;8.20;;
71696;SDS011;68167;59.120;37.898;2024-02-26T09:28:14;16.33;;;8.13;;
71696;SDS011;68167;59.120;37.898;2024-02-26T09:30:45;12.50;;;7.33;;
71696;SDS011;68167;59.120;37.898;2024-02-26T09:33:13;14.30;;;8.47;;
71696;SDS011;68167;59.120;37.898;2024-02-26T09:35:39;11.37;;;6.77;;
71696;SDS011;68167;59.120;37.898;2024-02-26T09:38:06;16.30;;;7.80;;
71696;SDS011;68167;59.120;37.898;2024-02-26T09:40:33;14.10;;;8.20;;
71696;SDS011;68167;59.120;37.898;2024-02-26T09:43:00;17.27;;;8.20;;
71696;SDS011;68167;59.120;37.898;2024-02-26T09:45:29;15.87;;;7.60;;
71696;SDS011;68167;59.120;37.898;2024-02-26T09:47:58;13.43;;;7.20;;
71696;SDS011;68167;59.120;37.898;2024-02-26T09:50:24;14.33;;;7.37;;
71696;SDS011;68167;59.120;37.898;2024-02-26T09:52:51;16.37;;;8.33;;
71696;SDS011;68167;59.120;37.898;2024-02-26T09:55:19;13.70;;;7.37;;
71696;SDS011;68167;59.120;37.898;2024-02-26T09:57:46;14.30;;;7.37;;
71696;SDS011;68167;59.120;37.898;2024-02-26T10:00:14;13.87;;;7.43;;
71696;SDS011;68167;59.120;37.898;2024-02-26T10:02:43;12.70;;;6.53;;
71696;SDS011;68167;59.120;37.898;2024-02-26T10:05:17;15.37;;;7.50;;
71696;SDS011;68167;59.120;37.898;2024-02-26T10:07:44;13.27;;;6.47;;
71696;SDS011;68167;59.120;37.898;2024-02-26T10:10:12;18.37;;;7.67;;
71696;SDS011;68167;59.120;37.898;2024-02-26T10:12:40;12.93;;;7.43;;
71696;SDS011;68167;59.120;37.898;2024-02-26T10:15:06;14.47;;;7.20;;
71696;SDS011;68167;59.120;37.898;2024-02-26T10:17:33;11.70;;;6.70;;
71696;SDS011;68167;59.120;37.898;2024-02-26T10:20:10;15.20;;;7.70;;
71696;SDS011;68167;59.120;37.898;2024-02-26T10:22:37;14.97;;;8.33;;
71696;SDS011;68167;59.120;37.898;2024-02-26T10:25:04;12.63;;;7.07;;
71696;SDS011;68167;59.120;37.898;2024-02-26T10:27:34;16.17;;;7.20;;
71696;SDS011;68167;59.120;37.898;2024-02-26T10:30:05;14.33;;;7.53;;
71696;SDS011;68167;59.120;37.898;2024-02-26T10:32:44;11.60;;;6.90;;
71696;SDS011;68167;59.120;37.898;2024-02-26T10:35:10;15.53;;;7.50;;
71696;SDS011;68167;59.120;37.898;2024-02-26T10:37:37;12.87;;;6.60;;
71696;SDS011;68167;59.120;37.898;2024-02-26T10:40:03;17.17;;;6.60;;
71696;SDS011;68167;59.120;37.898;2024-02-26T10:42:30;11.57;;;6.20;;
71696;SDS011;68167;59.120;37.898;2024-02-26T10:44:57;11.93;;;6.30;;
71696;SDS011;68167;59.120;37.898;2024-02-26T10:47:24;12.80;;;6.63;;
71696;SDS011;68167;59.120;37.898;2024-02-26T10:49:50;14.20;;;6.60;;
71696;SDS011;68167;59.120;37.898;2024-02-26T10:52:18;14.17;;;7.07;;
71696;SDS011;68167;59.120;37.898;2024-02-26T10:54:46;11.57;;;6.00;;
71696;SDS011;68167;59.120;37.898;2024-02-26T10:57:14;13.40;;;6.53;;
71696;SDS011;68167;59.120;37.898;2024-02-26T10:59:43;11.93;;;6.90;;
71696;SDS011;68167;59.120;37.898;2024-02-26T11:02:10;13.57;;;7.03;;
71696;SDS011;68167;59.120;37.898;2024-02-26T11:04:39;18.33;;;7.30;;
71696;SDS011;68167;59.120;37.898;2024-02-26T11:07:09;13.97;;;7.37;;
71696;SDS011;68167;59.120;37.898;2024-02-26T11:09:37;13.33;;;6.37;;
71696;SDS011;68167;59.120;37.898;2024-02-26T11:12:10;11.70;;;6.47;;
71696;SDS011;68167;59.120;37.898;2024-02-26T11:14:39;13.10;;;6.40;;
71696;SDS011;68167;59.120;37.898;2024-02-26T11:17:08;12.83;;;6.47;;
71696;SDS011;68167;59.120;37.898;2024-02-26T11:19:36;10.07;;;6.23;;
71696;SDS011;68167;59.120;37.898;2024-02-26T11:22:04;14.07;;;6.30;;
71696;SDS011;68167;59.120;37.898;2024-02-26T11:24:30;15.47;;;7.73;;
71696;SDS011;68167;59.120;37.898;2024-02-26T11:26:58;12.87;;;6.63;;
71696;SDS011;68167;59.120;37.898;2024-02-26T11:29:32;13.07;;;5.53;;
71696;SDS011;68167;59.120;37.898;2024-02-26T11:32:03;10.53;;;6.47;;
71696;SDS011;68167;59.120;37.898;2024-02-26T11:34:30;11.77;;;6.43;;
71696;SDS011;68167;59.120;37.898;2024-02-26T11:36:57;14.77;;;6.83;;
71696;SDS011;68167;59.120;37.898;2024-02-26T11:39:34;17.00;;;6.73;;
71696;SDS011;68167;59.120;37.898;2024-02-26T11:42:05;13.77;;;6.53;;
71696;SDS011;68167;59.120;37.898;2024-02-26T11:44:35;15.27;;;7.03;;
71696;SDS011;68167;59.120;37.898;2024-02-26T11:47:14;13.80;;;7.07;;
71696;SDS011;68167;59.120;37.898;2024-02-26T11:49:44;10.03;;;5.93;;
71696;SDS011;68167;59.120;37.898;2024-02-26T11:52:11;14.37;;;6.63;;
71696;SDS011;68167;59.120;37.898;2024-02-26T12:02:49;11.07;;;6.50;;
71696;SDS011;68167;59.120;37.898;2024-02-26T12:05:23;15.30;;;7.00;;
71696;SDS011;68167;59.120;37.898;2024-02-26T12:07:55;12.50;;;5.97;;
71696;SDS011;68167;59.120;37.898;2024-02-26T12:10:26;10.93;;;5.80;;
71696;SDS011;68167;59.120;37.898;2024-02-26T12:12:58;11.43;;;5.80;;
71696;SDS011;68167;59.120;37.898;2024-02-26T12:15:32;13.37;;;6.53;;
71696;SDS011;68167;59.120;37.898;2024-02-26T12:18:10;14.93;;;7.10;;
71696;SDS011;68167;59.120;37.898;2024-02-26T12:20:41;14.20;;;6.43;;
71696;SDS011;68167;59.120;37.898;2024-02-26T12:23:14;13.07;;;6.63;;
71696;SDS011;68167;59.120;37.898;2024-02-26T12:25:45;13.40;;;6.60;;
71696;SDS011;68167;59.120;37.898;2024-02-26T12:28:14;12.97;;;6.77;;
71696;SDS011;68167;59.120;37.898;2024-02-26T12:30:41;11.27;;;6.03;;
71696;SDS011;68167;59.120;37.898;2024-02-26T12:33:07;11.63;;;5.90;;
71696;SDS011;68167;59.120;37.898;2024-02-26T12:35:35;13.60;;;5.70;;
71696;SDS011;68167;59.120;37.898;2024-02-26T12:38:02;11.70;;;5.70;;
71696;SDS011;68167;59.120;37.898;2024-02-26T12:40:30;11.10;;;5.90;;
71696;SDS011;68167;59.120;37.898;2024-02-26T12:42:57;11.90;;;5.97;;
71696;SDS011;68167;59.120;37.898;2024-02-26T12:45:24;10.07;;;5.83;;
71696;SDS011;68167;59.120;37.898;2024-02-26T12:47:52;12.43;;;6.00;;
71696;SDS011;68167;59.120;37.898;2024-02-26T12:50:18;10.47;;;6.03;;
71696;SDS011;68167;59.120;37.898;2024-02-26T12:52:45;10.10;;;6.00;;
71696;SDS011;68167;59.120;37.898;2024-02-26T12:55:14;13.03;;;6.07;;
71696;SDS011;68167;59.120;37.898;2024-02-26T12:57:45;11.83;;;5.67;;
71696;SDS011;68167;59.120;37.898;2024-02-26T13:00:12;10.80;;;5.87;;
71696;SDS011;68167;59.120;37.898;2024-02-26T13:02:42;10.07;;;5.83;;
71696;SDS011;68167;59.120;37.898;2024-02-26T13:05:10;8.67;;;5.17;;
71696;SDS011;68167;59.120;37.898;2024-02-26T13:07:45;9.17;;;5.80;;
71696;SDS011;68167;59.120;37.898;2024-02-26T13:10:13;13.37;;;6.07;;
71696;SDS011;68167;59.120;37.898;2024-02-26T13:12:43;11.70;;;6.10;;
71696;SDS011;68167;59.120;37.898;2024-02-26T13:15:14;8.93;;;5.17;;
71696;SDS011;68167;59.120;37.898;2024-02-26T13:17:45;12.83;;;5.90;;
71696;SDS011;68167;59.120;37.898;2024-02-26T13:20:12;12.33;;;6.17;;
71696;SDS011;68167;59.120;37.898;2024-02-26T13:22:39;9.90;;;5.10;;
71696;SDS011;68167;59.120;37.898;2024-02-26T13:25:05;9.80;;;5.53;;
71696;SDS011;68167;59.120;37.898;2024-02-26T13:27:35;9.23;;;5.40;;
71696;SDS011;68167;59.120;37.898;2024-02-26T13:30:19;10.13;;;5.90;;
71696;SDS011;68167;59.120;37.898;2024-02-26T13:32:46;8.13;;;4.90;;
71696;SDS011;68167;59.120;37.898;2024-02-26T13:35:12;9.70;;;5.70;;
71696;SDS011;68167;59.120;37.898;2024-02-26T13:37:40;9.33;;;5.77;;
71696;SDS011;68167;59.120;37.898;2024-02-26T13:40:07;10.13;;;5.47;;
71696;SDS011;68167;59.120;37.898;2024-02-26T13:42:35;11.97;;;5.57;;
71696;SDS011;68167;59.120;37.898;2024-02-26T13:45:02;9.33;;;5.03;;
71696;SDS011;68167;59.120;37.898;2024-02-26T13:47:31;10.10;;;5.60;;
71696;SDS011;68167;59.120;37.898;2024-02-26T13:49:58;9.60;;;6.23;;
71696;SDS011;68167;59.120;37.898;2024-02-26T13:52:24;11.73;;;6.27;;
71696;SDS011;68167;59.120;37.898;2024-02-26T13:54:51;9.43;;;5.77;;
71696;SDS011;68167;59.120;37.898;2024-02-26T13:57:18;13.40;;;5.90;;
71696;SDS011;68167;59.120;37.898;2024-02-26T13:59:45;12.17;;;5.70;;
71696;SDS011;68167;59.120;37.898;2024-02-26T14:02:11;10.67;;;6.30;;
71696;SDS011;68167;59.120;37.898;2024-02-26T14:04:40;10.47;;;5.87;;
71696;SDS011;68167;59.120;37.898;2024-02-26T14:07:06;12.77;;;7.10;;
71696;SDS011;68167;59.120;37.898;2024-02-26T14:09:34;13.07;;;6.73;;
71696;SDS011;68167;59.120;37.898;2024-02-26T14:12:00;10.50;;;6.27;;
71696;SDS011;68167;59.120;37.898;2024-02-26T14:14:27;12.63;;;6.53;;
71696;SDS011;68167;59.120;37.898;2024-02-26T14:16:54;12.60;;;6.67;;
71696;SDS011;68167;59.120;37.898;2024-02-26T14:19:20;13.53;;;6.03;;
71696;SDS011;68167;59.120;37.898;2024-02-26T14:21:46;11.77;;;5.80;;
71696;SDS011;68167;59.120;37.898;2024-02-26T14:24:12;12.77;;;6.73;;
71696;SDS011;68167;59.120;37.898;2024-02-26T14:26:39;10.53;;;6.10;;
71696;SDS011;68167;59.120;37.898;2024-02-26T14:29:06;12.80;;;6.40;;
71696;SDS011;68167;59.120;37.898;2024-02-26T14:31:32;11.00;;;6.27;;